Terminal Aerodrome Forecast
Issued by NWS

Home | Current Version | Previous Version | Graphics & Text | Print | Product List | Glossary On
Versions: 1 2 3 4 5 6 7 8 9 10 11 12 13 14
000
FTUS43 KMPX 080538
TAFRWF
TAF
KRWF 080538Z 0806/0906 25009KT P6SM OVC070
     FM081200 31009KT P6SM SCT090
     FM081600 29010G19KT P6SM SCT010 OVC015
     FM082200 32022G31KT P6SM OVC015=

USA.gov is the U.S. government's official web portal to all federal, state and local government web resources and services.